createdAt,value
2023-06-01T05:48:04.671Z,4.78
2023-06-01T05:50:31.311Z,4.70
2023-06-01T05:52:58.433Z,4.68
2023-06-01T05:55:25.079Z,5.28
2023-06-01T05:57:51.737Z,4.55
2023-06-01T06:00:18.858Z,4.90
2023-06-01T06:02:45.910Z,4.90
2023-06-01T06:05:12.725Z,5.60
2023-06-01T06:07:39.955Z,5.03
2023-06-01T06:10:07.368Z,4.80
2023-06-01T06:12:34.041Z,5.00
2023-06-01T06:15:00.855Z,5.28
2023-06-01T06:17:27.501Z,5.18
2023-06-01T06:19:54.163Z,4.95
2023-06-01T06:22:21.141Z,5.10
2023-06-01T06:24:48.453Z,5.15
2023-06-01T06:27:15.183Z,4.97
2023-06-01T06:29:41.826Z,5.25
2023-06-01T06:32:08.887Z,5.25
2023-06-01T06:34:38.768Z,5.38
2023-06-01T06:37:07.274Z,5.38
2023-06-01T06:39:35.115Z,5.05
2023-06-01T06:42:04.579Z,5.63
2023-06-01T06:44:31.241Z,4.57
2023-06-01T06:47:02.262Z,4.65
2023-06-01T06:49:29.707Z,5.00
2023-06-01T06:51:57.022Z,5.20
2023-06-01T06:54:24.001Z,4.82
2023-06-01T06:56:50.770Z,5.20
2023-06-01T06:59:17.935Z,4.68
2023-06-01T07:01:44.776Z,5.05
2023-06-01T07:04:11.570Z,5.25
2023-06-01T07:06:38.523Z,4.65
2023-06-01T07:09:07.166Z,5.22
2023-06-01T07:11:34.196Z,5.07
2023-06-01T07:14:01.108Z,5.40
2023-06-01T07:16:29.672Z,4.95
2023-06-01T07:18:57.725Z,5.28
2023-06-01T07:21:24.764Z,5.53
2023-06-01T07:23:51.537Z,5.53
2023-06-01T07:26:18.589Z,5.68
2023-06-01T07:28:45.966Z,5.00
2023-06-01T07:31:13.004Z,5.85
2023-06-01T07:33:40.291Z,5.05
2023-06-01T07:36:07.851Z,5.45
2023-06-01T07:38:35.277Z,6.00
2023-06-01T07:41:02.445Z,5.60
2023-06-01T07:43:29.764Z,5.35
2023-06-01T07:45:57.562Z,5.47
2023-06-01T07:48:24.786Z,5.63
2023-06-01T07:50:52.168Z,5.70
2023-06-01T07:53:21.837Z,5.07
2023-06-01T07:55:51.367Z,5.00
2023-06-01T07:58:18.428Z,5.20
2023-06-01T08:00:45.380Z,4.78
2023-06-01T08:03:12.476Z,5.30
2023-06-01T08:05:44.215Z,5.35
2023-06-01T08:08:13.438Z,5.13
2023-06-01T08:10:41.200Z,4.82
2023-06-01T08:13:08.676Z,5.20
2023-06-01T08:15:38.277Z,6.07
2023-06-01T08:18:07.809Z,4.78
2023-06-01T08:20:35.261Z,4.82
2023-06-01T08:23:02.812Z,4.18
2023-06-01T08:25:30.079Z,4.95
2023-06-01T08:27:58.035Z,4.78
2023-06-01T08:30:27.942Z,5.50
2023-06-01T08:32:55.123Z,4.68
2023-06-01T08:35:23.044Z,5.15
2023-06-01T08:37:51.432Z,5.15
2023-06-01T08:40:18.569Z,4.53
2023-06-01T08:43:04.970Z,4.55
2023-06-01T08:45:34.278Z,4.07
2023-06-01T08:48:03.900Z,4.85
2023-06-01T08:50:31.053Z,4.00
2023-06-01T08:53:01.057Z,4.47
2023-06-01T08:55:28.117Z,4.22
2023-06-01T08:57:55.970Z,3.97
2023-06-01T09:00:24.462Z,4.00
2023-06-01T09:02:54.615Z,5.35
2023-06-01T09:05:21.927Z,4.45
2023-06-01T09:07:53.229Z,4.63
2023-06-01T09:10:26.607Z,4.28
2023-06-01T09:12:55.243Z,3.90
2023-06-01T09:15:23.143Z,4.30
2023-06-01T09:18:04.783Z,4.43
2023-06-01T09:20:33.133Z,4.40
2023-06-01T09:23:00.145Z,5.07
2023-06-01T09:25:29.462Z,4.45
2023-06-01T09:27:58.765Z,4.50
2023-06-01T09:30:28.034Z,3.95
2023-06-01T09:33:18.298Z,4.22
2023-06-01T09:35:50.751Z,4.20
2023-06-01T09:38:26.067Z,4.68
2023-06-01T09:41:05.070Z,4.20
2023-06-01T09:43:38.244Z,4.13
2023-06-01T09:46:09.986Z,4.40
2023-06-01T09:48:38.124Z,4.18
2023-06-01T09:51:05.569Z,4.70
2023-06-01T09:53:42.741Z,3.78
2023-06-01T09:56:09.674Z,3.70
2023-06-01T09:58:41.094Z,4.07
2023-06-01T10:01:10.515Z,3.95
2023-06-01T10:03:45.366Z,4.00
2023-06-01T10:06:13.844Z,3.67
2023-06-01T10:08:42.955Z,3.80
2023-06-01T10:11:10.534Z,3.47
2023-06-01T10:13:38.472Z,3.88
2023-06-01T10:16:06.577Z,3.80
2023-06-01T10:18:34.198Z,3.60
2023-06-01T10:21:02.619Z,3.55
2023-06-01T10:23:31.850Z,4.30
2023-06-01T10:26:06.110Z,3.78
2023-06-01T10:28:36.697Z,4.00
2023-06-01T10:31:39.228Z,3.78
2023-06-01T10:34:08.748Z,4.13
2023-06-01T10:36:55.752Z,3.80
2023-06-01T10:39:30.768Z,3.42
2023-06-01T10:41:59.863Z,3.38
2023-06-01T10:44:41.874Z,4.07
2023-06-01T10:47:11.767Z,4.57
2023-06-01T10:49:53.436Z,3.80
2023-06-01T10:52:31.811Z,3.57
2023-06-01T10:55:08.059Z,3.78
2023-06-01T10:57:35.648Z,4.28
2023-06-01T11:00:25.783Z,4.00
2023-06-01T11:03:06.505Z,3.63
2023-06-01T11:05:50.206Z,3.92
2023-06-01T11:08:28.209Z,4.17
2023-06-01T11:10:57.376Z,3.47
2023-06-01T11:13:29.085Z,3.33
2023-06-01T11:16:10.310Z,2.95
2023-06-01T11:18:48.004Z,3.33
2023-06-01T11:21:22.527Z,3.58
2023-06-01T11:23:50.659Z,2.70
2023-06-01T11:26:19.931Z,2.65
2023-06-01T11:28:49.001Z,3.08
2023-06-01T11:31:18.268Z,3.08
2023-06-01T11:33:58.363Z,2.78
2023-06-01T11:36:25.942Z,2.83
2023-06-01T11:38:55.759Z,2.80
2023-06-01T11:41:24.617Z,2.83
2023-06-01T11:43:58.936Z,2.55
2023-06-01T11:49:06.276Z,2.40
2023-06-01T11:51:40.306Z,2.08
2023-06-01T11:54:07.935Z,2.60
2023-06-01T11:56:37.411Z,2.17
2023-06-01T11:59:09.800Z,2.53
2023-06-01T12:01:44.932Z,2.58
2023-06-01T12:04:20.714Z,2.70
2023-06-01T12:06:52.499Z,2.55
2023-06-01T12:09:21.561Z,2.45
2023-06-01T12:11:49.407Z,1.98
2023-06-01T12:14:17.211Z,2.63
2023-06-01T12:16:55.570Z,2.75
2023-06-01T12:19:23.374Z,2.30
2023-06-01T12:21:52.288Z,2.70
2023-06-01T12:24:28.498Z,2.63
2023-06-01T12:26:56.224Z,2.10
2023-06-01T12:29:43.177Z,2.55
2023-06-01T12:32:12.155Z,2.22
2023-06-01T12:34:40.447Z,2.28
2023-06-01T12:37:14.957Z,2.58
2023-06-01T12:39:42.773Z,2.13
2023-06-01T12:42:11.525Z,2.40
2023-06-01T12:44:40.930Z,2.35
2023-06-01T12:47:08.799Z,2.33
2023-06-01T12:49:36.095Z,1.98
2023-06-01T12:52:03.654Z,2.00
2023-06-01T12:54:30.396Z,2.00
2023-06-01T12:56:57.606Z,1.98
2023-06-01T12:59:24.374Z,1.92
2023-06-01T13:01:51.189Z,2.35
2023-06-01T13:04:18.357Z,2.13
2023-06-01T13:06:45.791Z,2.35
2023-06-01T13:09:12.927Z,2.17
2023-06-01T13:11:39.666Z,2.20
2023-06-01T13:14:06.401Z,2.00
2023-06-01T13:16:33.610Z,2.30
2023-06-01T13:19:01.334Z,2.33
2023-06-01T13:21:27.966Z,1.90
2023-06-01T13:23:54.638Z,2.03
2023-06-01T13:26:23.231Z,1.88
2023-06-01T13:28:50.037Z,1.70
2023-06-01T13:31:17.110Z,2.17
2023-06-01T13:33:44.471Z,2.17
2023-06-01T13:36:11.307Z,2.00
2023-06-01T13:38:39.412Z,1.58
2023-06-01T13:41:06.283Z,1.48
2023-06-01T13:43:32.983Z,1.63
2023-06-01T13:45:59.782Z,2.00
2023-06-01T13:48:26.569Z,1.75
2023-06-01T13:50:53.315Z,1.80
2023-06-01T13:53:19.991Z,1.67
2023-06-01T13:55:47.026Z,1.75
2023-06-01T13:58:13.997Z,1.58
2023-06-01T14:00:42.209Z,1.80
2023-06-01T14:03:10.420Z,1.40
2023-06-01T14:05:49.354Z,1.75
2023-06-01T14:08:20.711Z,1.30
2023-06-01T14:10:47.463Z,1.42
2023-06-01T14:13:14.210Z,1.60
2023-06-01T14:15:41.080Z,1.30
2023-06-01T14:18:07.893Z,1.30
2023-06-01T14:20:35.736Z,1.20
2023-06-01T14:23:04.100Z,1.35
2023-06-01T14:25:30.861Z,1.48
2023-06-01T14:27:57.608Z,1.20
2023-06-01T14:30:24.884Z,1.60
2023-06-01T14:32:51.943Z,1.55
2023-06-01T14:35:19.806Z,1.30
2023-06-01T14:37:49.596Z,1.20
2023-06-01T14:40:17.104Z,0.90
2023-06-01T14:42:43.794Z,1.05
2023-06-01T14:45:12.387Z,0.80
2023-06-01T14:47:42.569Z,1.08
2023-06-01T14:50:10.814Z,1.00
2023-06-01T14:52:37.724Z,0.90
2023-06-01T14:55:04.804Z,0.95
2023-06-01T14:57:31.565Z,1.10
2023-06-01T15:00:03.932Z,1.02
2023-06-01T15:02:32.396Z,1.10
2023-06-01T15:04:59.245Z,0.90
2023-06-01T15:07:25.925Z,1.05
2023-06-01T15:09:54.653Z,1.40
2023-06-01T15:12:21.768Z,1.10
2023-06-01T15:14:49.457Z,1.50
2023-06-01T15:17:16.615Z,1.25
2023-06-01T15:19:43.489Z,1.13
2023-06-01T15:22:10.748Z,1.33
2023-06-01T15:24:38.650Z,1.10
2023-06-01T15:27:05.604Z,1.25
2023-06-01T15:29:32.463Z,1.10
2023-06-01T15:31:59.119Z,1.23
2023-06-01T15:34:25.994Z,1.30
2023-06-01T15:36:52.712Z,1.33
2023-06-01T15:39:19.406Z,1.10
2023-06-01T15:41:48.638Z,1.40
2023-06-01T15:44:15.690Z,1.25
2023-06-01T15:46:45.746Z,1.40
2023-06-01T15:49:12.458Z,1.50
2023-06-01T15:51:39.169Z,1.27
2023-06-01T15:54:05.976Z,1.25
2023-06-01T15:56:32.702Z,1.10
2023-06-01T15:58:59.378Z,1.17
2023-06-01T16:01:30.180Z,1.00
2023-06-01T16:03:57.870Z,1.25
2023-06-01T16:06:24.958Z,1.40
2023-06-01T16:08:51.594Z,1.40
2023-06-01T16:11:18.582Z,1.63
2023-06-01T16:13:45.518Z,1.60
2023-06-01T16:16:13.750Z,1.33
2023-06-01T16:18:41.741Z,1.50
2023-06-01T16:21:08.410Z,1.65
2023-06-01T16:23:35.486Z,1.80
2023-06-01T16:26:02.425Z,1.63
2023-06-01T16:28:29.087Z,1.60
2023-06-01T16:30:55.870Z,2.17
2023-06-01T16:33:22.614Z,1.55
2023-06-01T16:35:49.300Z,2.00
2023-06-01T16:38:15.954Z,1.75
2023-06-01T16:40:42.714Z,1.98
2023-06-01T16:43:09.702Z,1.95
2023-06-01T16:45:36.354Z,1.73
2023-06-01T16:48:03.214Z,1.90
2023-06-01T16:50:30.022Z,1.80
2023-06-01T16:52:57.391Z,1.70
2023-06-01T16:55:24.057Z,1.90
2023-06-01T16:57:50.793Z,1.88
2023-06-01T17:00:17.657Z,1.52
2023-06-01T17:02:45.043Z,1.60
2023-06-01T17:05:12.125Z,1.90
2023-06-01T17:07:39.068Z,1.65
2023-06-01T17:10:06.204Z,2.28
2023-06-01T17:12:32.903Z,1.95
2023-06-01T17:14:59.556Z,2.38
2023-06-01T17:17:26.805Z,2.45
2023-06-01T17:19:55.764Z,2.15
2023-06-01T17:22:22.748Z,2.40
2023-06-01T17:24:49.503Z,2.20
2023-06-01T17:27:16.428Z,2.05
2023-06-01T17:29:43.240Z,2.20
2023-06-01T17:32:10.136Z,1.90
2023-06-01T17:34:36.903Z,1.90
2023-06-01T17:37:04.728Z,1.73
2023-06-01T17:39:31.679Z,2.10
2023-06-01T17:41:58.771Z,1.98
2023-06-01T17:44:26.405Z,1.90
2023-06-01T17:46:53.640Z,2.10
2023-06-01T17:49:20.826Z,1.88
2023-06-01T17:51:47.551Z,1.65
2023-06-01T17:54:14.390Z,1.70
2023-06-01T17:56:41.037Z,1.67
2023-06-01T17:59:07.683Z,1.77
2023-06-01T18:01:34.498Z,1.55
2023-06-01T18:04:01.493Z,1.70
2023-06-01T18:06:28.298Z,1.65
2023-06-01T18:08:55.029Z,1.40
2023-06-01T18:11:21.869Z,1.63
2023-06-01T18:13:50.380Z,1.50
2023-06-01T18:16:17.109Z,1.60
2023-06-01T18:18:44.456Z,1.60
2023-06-01T18:21:11.140Z,1.23
2023-06-01T18:23:37.945Z,1.63
2023-06-01T18:26:05.013Z,1.35
2023-06-01T18:28:31.718Z,1.30
2023-06-01T18:30:58.368Z,1.50
2023-06-01T18:33:25.528Z,1.35
2023-06-01T18:35:52.228Z,1.67
2023-06-01T18:38:20.197Z,1.45
2023-06-01T18:40:46.908Z,1.25
2023-06-01T18:43:14.922Z,1.27
2023-06-01T18:45:42.257Z,1.20
2023-06-01T18:48:09.065Z,1.35
2023-06-01T18:50:36.021Z,1.20
2023-06-01T18:53:02.977Z,1.33
2023-06-01T18:55:30.019Z,1.40
2023-06-01T18:57:56.881Z,0.98
2023-06-01T19:00:23.602Z,1.30
2023-06-01T19:02:50.374Z,1.60
2023-06-01T19:05:24.481Z,1.30
2023-06-01T19:07:51.770Z,1.30
2023-06-01T19:11:00.582Z,1.10
2023-06-01T19:13:41.403Z,0.98
2023-06-01T19:16:16.281Z,1.42
2023-06-01T19:19:08.235Z,0.98
2023-06-01T19:21:36.712Z,1.15
2023-06-01T19:24:12.021Z,0.90
2023-06-01T19:26:40.357Z,1.02
2023-06-01T19:29:10.051Z,1.02
2023-06-01T19:31:42.212Z,1.23
2023-06-01T19:34:10.814Z,0.90
2023-06-01T19:36:43.417Z,1.15
2023-06-01T19:39:22.903Z,1.00
2023-06-01T19:41:49.644Z,0.90
2023-06-01T19:44:19.568Z,1.33
2023-06-01T19:46:47.647Z,1.10
2023-06-01T19:49:17.487Z,1.20
2023-06-01T19:51:46.440Z,1.33
2023-06-01T19:54:21.007Z,1.25
2023-06-01T19:56:48.711Z,1.20
2023-06-01T19:59:21.590Z,1.08
2023-06-01T20:01:49.170Z,1.35
2023-06-01T20:04:16.214Z,1.48
2023-06-01T20:06:54.066Z,1.75
2023-06-01T20:09:22.624Z,1.25
2023-06-01T20:11:56.670Z,1.15
2023-06-01T20:14:30.810Z,1.33
2023-06-01T20:17:01.567Z,1.48
2023-06-01T20:19:28.731Z,1.38
2023-06-01T20:21:56.968Z,1.60
2023-06-01T20:24:31.140Z,1.63
2023-06-01T20:27:03.569Z,1.35
2023-06-01T20:29:33.426Z,1.30
2023-06-01T20:32:02.034Z,1.75
2023-06-01T20:34:31.285Z,1.35
2023-06-01T20:36:58.258Z,1.27
2023-06-01T20:39:25.793Z,1.73
2023-06-01T20:41:56.545Z,1.58
2023-06-01T20:44:24.143Z,1.60
2023-06-01T20:46:52.093Z,1.58
2023-06-01T20:49:23.786Z,1.75
2023-06-01T20:51:50.497Z,2.00
2023-06-01T20:54:19.346Z,1.60
2023-06-01T20:56:51.585Z,1.70
2023-06-01T20:59:23.423Z,1.25
2023-06-01T21:01:52.353Z,1.60
2023-06-01T21:04:24.317Z,1.63
2023-06-01T21:06:51.929Z,1.67
2023-06-01T21:09:20.177Z,1.30
2023-06-01T21:11:49.778Z,1.80
2023-06-01T21:14:17.405Z,2.08
2023-06-01T21:16:44.856Z,1.50
2023-06-01T21:19:12.039Z,1.90
2023-06-01T21:21:38.885Z,1.92
2023-06-01T21:24:06.001Z,1.48
2023-06-01T21:26:34.109Z,1.63
2023-06-01T21:29:01.481Z,1.70
2023-06-01T21:31:28.196Z,1.42
2023-06-01T21:33:54.982Z,1.83
2023-06-01T21:36:21.720Z,1.92
2023-06-01T21:38:48.446Z,1.70
2023-06-01T21:41:15.077Z,1.95
2023-06-01T21:43:41.710Z,1.85
2023-06-01T21:46:08.457Z,2.05
2023-06-01T21:48:35.368Z,1.70
2023-06-01T21:51:02.140Z,1.55
2023-06-01T21:53:30.014Z,1.67
2023-06-01T21:55:56.865Z,1.73
2023-06-01T21:58:25.461Z,1.58
2023-06-01T22:00:53.467Z,1.52
2023-06-01T22:03:21.800Z,1.70
2023-06-01T22:05:49.046Z,1.80
2023-06-01T22:08:15.826Z,1.98
2023-06-01T22:10:42.615Z,2.38
2023-06-01T22:13:09.345Z,2.00
2023-06-01T22:15:36.082Z,1.70
2023-06-01T22:18:03.184Z,1.95
2023-06-01T22:20:30.129Z,2.38
2023-06-01T22:22:56.927Z,2.10
2023-06-01T22:25:23.756Z,1.80
2023-06-01T22:27:50.432Z,2.10
2023-06-01T22:30:17.141Z,1.80
2023-06-01T22:32:43.916Z,1.92
2023-06-01T22:35:10.864Z,1.90
2023-06-01T22:37:37.615Z,1.90
2023-06-01T22:40:08.694Z,2.00
2023-06-01T22:42:35.536Z,2.22
2023-06-01T22:45:02.679Z,1.92
2023-06-01T22:47:29.695Z,1.83
2023-06-01T22:49:57.649Z,1.90
2023-06-01T22:52:28.390Z,2.60
2023-06-01T22:54:56.350Z,2.22
2023-06-01T22:57:23.637Z,1.88
2023-06-01T22:59:50.683Z,2.17
2023-06-01T23:02:22.146Z,1.98
2023-06-01T23:04:48.949Z,1.92
2023-06-01T23:07:16.013Z,2.40
2023-06-01T23:09:44.473Z,2.55
2023-06-01T23:12:13.096Z,2.30
2023-06-01T23:14:42.440Z,2.10
2023-06-01T23:17:14.005Z,2.00
2023-06-01T23:19:42.445Z,1.77
2023-06-01T23:22:12.618Z,1.95
2023-06-01T23:24:39.695Z,2.15
2023-06-01T23:27:07.429Z,2.10
2023-06-01T23:29:34.469Z,2.03
2023-06-01T23:32:01.301Z,2.08
2023-06-01T23:34:28.097Z,2.30
2023-06-01T23:36:56.240Z,2.20
2023-06-01T23:39:24.358Z,2.20
2023-06-01T23:41:51.338Z,2.50
2023-06-01T23:44:18.388Z,2.58
2023-06-01T23:46:46.583Z,2.22
2023-06-01T23:49:13.966Z,2.33
2023-06-01T23:51:40.731Z,1.88
2023-06-01T23:54:07.503Z,2.00
2023-06-01T23:56:34.279Z,1.92
2023-06-01T23:59:01.601Z,2.05
